createdAt,value
2018-08-12T00:01:11.195Z,96446.22
2018-08-12T00:03:41.400Z,96445.14
2018-08-12T00:06:11.358Z,96443.55
2018-08-12T00:08:43.518Z,96458.08
2018-08-12T00:11:13.874Z,96457.71
2018-08-12T00:13:43.768Z,96453.98
2018-08-12T00:16:13.640Z,96453.51
2018-08-12T00:18:43.537Z,96460.16
2018-08-12T00:21:13.426Z,96460.62
2018-08-12T00:23:43.358Z,96457.47
2018-08-12T00:26:13.603Z,96447.70
2018-08-12T00:28:43.687Z,96457.08
2018-08-12T00:31:13.647Z,96449.70
2018-08-12T00:33:43.712Z,96440.00
2018-08-12T00:36:13.581Z,96438.08
2018-08-12T00:38:43.484Z,96434.98
2018-08-12T00:41:14.078Z,96433.66
2018-08-12T00:43:44.353Z,96429.50
2018-08-12T00:46:14.505Z,96433.66
2018-08-12T00:48:44.372Z,96434.11
2018-08-12T00:51:14.503Z,96426.87
2018-08-12T00:53:44.696Z,96429.34
2018-08-12T00:56:15.297Z,96423.52
2018-08-12T00:58:45.734Z,96423.03
2018-08-12T01:01:15.578Z,96419.31
2018-08-12T01:03:45.437Z,96417.61
2018-08-12T01:06:15.734Z,96411.96
2018-08-12T01:08:45.791Z,96414.87
2018-08-12T01:11:15.708Z,96417.03
2018-08-12T01:13:45.852Z,96411.53
2018-08-12T01:16:16.122Z,96406.99
2018-08-12T01:18:46.032Z,96405.78
2018-08-12T01:21:16.458Z,96402.80
2018-08-12T01:23:46.354Z,96393.55
2018-08-12T01:26:16.484Z,96396.91
2018-08-12T01:28:46.336Z,96395.33
2018-08-12T01:31:17.174Z,96390.58
2018-08-12T01:33:47.506Z,96390.16
2018-08-12T01:36:17.348Z,96392.20
2018-08-12T01:38:47.296Z,96392.94
2018-08-12T01:41:17.156Z,96389.25
2018-08-12T01:43:46.998Z,96384.05
2018-08-12T01:49:52.672Z,96383.13
2018-08-12T01:52:22.684Z,96383.03
2018-08-12T01:54:52.594Z,96381.54
2018-08-12T01:57:22.450Z,96381.09
2018-08-12T01:59:52.428Z,96371.23
2018-08-12T02:05:57.838Z,96371.69
2018-08-12T02:08:28.049Z,96376.06
2018-08-12T02:10:58.324Z,96370.38
2018-08-12T02:13:28.193Z,96372.70
2018-08-12T02:15:58.038Z,96368.77
2018-08-12T02:18:28.630Z,96360.54
2018-08-12T02:20:58.532Z,96360.08
2018-08-12T02:23:29.404Z,96352.77
2018-08-12T02:25:59.727Z,96353.64
2018-08-12T02:28:29.521Z,96354.03
2018-08-12T02:30:59.999Z,96354.91
2018-08-12T02:33:30.200Z,96350.90
2018-08-12T02:36:00.427Z,96345.50
2018-08-12T02:38:30.258Z,96343.94
2018-08-12T02:41:00.557Z,96343.25
2018-08-12T02:43:30.582Z,96336.98
2018-08-12T02:46:00.454Z,96332.41
2018-08-12T02:48:30.516Z,96332.08
2018-08-12T02:51:00.713Z,96329.66
2018-08-12T02:53:30.610Z,96331.88
2018-08-12T02:56:01.473Z,96323.55
2018-08-12T02:58:31.342Z,96319.44
2018-08-12T03:01:01.415Z,96323.81
2018-08-12T03:03:31.327Z,96315.48
2018-08-12T03:06:01.181Z,96311.91
2018-08-12T03:12:07.021Z,96300.70
2018-08-12T03:14:36.883Z,96297.13
2018-08-12T03:17:06.777Z,96293.08
2018-08-12T03:19:36.635Z,96298.43
2018-08-12T03:22:06.641Z,96299.19
2018-08-12T03:28:11.627Z,96292.44
2018-08-12T03:30:41.473Z,96290.79
2018-08-12T03:33:11.383Z,96291.09
2018-08-12T03:35:41.305Z,96284.60
2018-08-12T03:38:11.231Z,96281.08
2018-08-12T03:40:41.231Z,96288.63
2018-08-12T03:43:11.172Z,96285.19
2018-08-12T03:45:41.007Z,96275.98
2018-08-12T03:48:10.853Z,96271.65
2018-08-12T03:50:41.097Z,96270.81
2018-08-12T03:53:45.705Z,96275.03
2018-08-12T03:56:15.606Z,96277.72
2018-08-12T03:58:45.939Z,96274.94
2018-08-12T04:01:15.782Z,96280.39
2018-08-12T04:03:45.709Z,96277.90
2018-08-12T04:06:16.157Z,96272.09
2018-08-12T04:08:46.047Z,96276.42
2018-08-12T04:11:15.971Z,96274.49
2018-08-12T04:13:46.213Z,96273.59
2018-08-12T04:16:16.063Z,96277.62
2018-08-12T04:18:45.977Z,96272.45
2018-08-12T04:21:16.091Z,96272.30
2018-08-12T04:23:46.010Z,96269.95
2018-08-12T04:26:15.851Z,96274.77
2018-08-12T04:28:45.947Z,96271.68
2018-08-12T04:31:15.786Z,96277.75
2018-08-12T04:33:45.972Z,96276.80
2018-08-12T04:36:15.821Z,96273.30
2018-08-12T04:38:45.782Z,96270.64
2018-08-12T04:48:27.279Z,96271.68
2018-08-12T04:50:57.160Z,96261.66
2018-08-12T04:53:26.985Z,96259.70
2018-08-12T04:55:56.947Z,96262.59
2018-08-12T04:58:26.811Z,96260.34
2018-08-12T05:00:56.766Z,96261.84
2018-08-12T05:03:26.693Z,96259.55
2018-08-12T05:05:58.795Z,96268.34
2018-08-12T05:08:30.795Z,96265.39
2018-08-12T05:11:00.914Z,96268.31
2018-08-12T05:13:30.976Z,96266.52
2018-08-12T05:16:00.818Z,96260.94
2018-08-12T05:18:31.337Z,96260.20
2018-08-12T05:21:01.809Z,96261.04
2018-08-12T05:23:32.236Z,96258.02
2018-08-12T05:26:02.896Z,96261.27
2018-08-12T05:28:33.308Z,96258.62
2018-08-12T05:31:03.699Z,96249.20
2018-08-12T05:33:34.059Z,96253.84
2018-08-12T05:36:04.220Z,96256.30
2018-08-12T05:38:34.748Z,96252.92
2018-08-12T05:41:05.165Z,96250.98
2018-08-12T05:43:35.496Z,96249.86
2018-08-12T05:46:05.705Z,96249.31
2018-08-12T05:48:36.224Z,96249.30
2018-08-12T05:51:06.362Z,96244.78
2018-08-12T05:53:36.965Z,96237.80
2018-08-12T05:56:07.085Z,96235.63
2018-08-12T05:58:37.190Z,96236.45
2018-08-12T06:01:07.884Z,96233.33
2018-08-12T06:03:38.102Z,96241.48
2018-08-12T06:06:08.284Z,96239.66
2018-08-12T06:08:38.465Z,96232.30
2018-08-12T06:11:08.992Z,96229.34
2018-08-12T06:13:39.382Z,96229.60
2018-08-12T06:16:09.920Z,96231.62
2018-08-12T06:18:40.673Z,96226.69
2018-08-12T06:21:11.423Z,96220.64
2018-08-12T06:23:42.396Z,96211.97
2018-08-12T06:26:13.148Z,96214.33
2018-08-12T06:28:43.696Z,96212.16
2018-08-12T06:31:14.205Z,96205.72
2018-08-12T06:33:44.590Z,96202.73
2018-08-12T06:36:15.049Z,96215.34
2018-08-12T06:38:45.548Z,96211.93
2018-08-12T06:41:15.996Z,96214.86
2018-08-12T06:43:46.440Z,96222.44
2018-08-12T06:46:16.849Z,96228.98
2018-08-12T06:48:48.351Z,96223.88
2018-08-12T06:51:18.881Z,96214.55
2018-08-12T06:53:49.811Z,96218.11
2018-08-12T06:56:20.176Z,96223.97
2018-08-12T06:58:50.617Z,96214.05
2018-08-12T07:01:22.514Z,96210.78
2018-08-12T07:03:52.758Z,96205.08
2018-08-12T07:06:22.979Z,96209.23
2018-08-12T07:08:52.814Z,96211.41
2018-08-12T07:11:22.726Z,96211.25
2018-08-12T07:13:53.455Z,96213.17
2018-08-12T07:16:24.504Z,96213.14
2018-08-12T07:18:54.735Z,96206.75
2018-08-12T07:21:25.361Z,96203.80
2018-08-12T07:23:55.144Z,96200.95
2018-08-12T07:26:55.490Z,96204.63
2018-08-12T07:29:25.320Z,96201.91
2018-08-12T07:31:55.084Z,96210.95
2018-08-12T07:34:25.483Z,96195.33
2018-08-12T07:36:55.456Z,96200.37
2018-08-12T07:39:25.815Z,96202.58
2018-08-12T07:41:56.149Z,96199.11
2018-08-12T07:44:27.149Z,96209.16
2018-08-12T07:46:57.453Z,96204.91
2018-08-12T07:49:28.152Z,96200.44
2018-08-12T07:51:58.522Z,96198.47
2018-08-12T07:54:29.115Z,96183.98
2018-08-12T07:56:59.511Z,96193.08
2018-08-12T07:59:29.907Z,96200.13
2018-08-12T08:02:00.415Z,96195.60
2018-08-12T08:04:31.443Z,96186.16
2018-08-12T08:07:02.185Z,96184.31
2018-08-12T08:09:32.617Z,96182.09
2018-08-12T08:12:03.335Z,96179.50
2018-08-12T08:14:33.794Z,96185.20
2018-08-12T08:17:04.303Z,96183.06
2018-08-12T08:19:34.800Z,96190.02
2018-08-12T08:22:05.455Z,96181.06
2018-08-12T08:24:36.171Z,96192.72
2018-08-12T08:27:06.694Z,96186.27
2018-08-12T08:29:37.479Z,96185.03
2018-08-12T08:32:08.259Z,96184.92
2018-08-12T08:34:38.642Z,96183.52
2018-08-12T08:37:09.679Z,96189.67
2018-08-12T08:39:40.419Z,96182.61
2018-08-12T08:42:10.975Z,96180.16
2018-08-12T08:44:41.449Z,96181.41
2018-08-12T08:47:12.549Z,96182.13
2018-08-12T08:49:42.981Z,96185.05
2018-08-12T08:52:13.987Z,96176.92
2018-08-12T08:55:45.087Z,96173.22
2018-08-12T08:58:15.883Z,96170.94
2018-08-12T09:00:46.293Z,96177.09
2018-08-12T09:03:16.993Z,96177.38
2018-08-12T09:05:48.421Z,96179.77
2018-08-12T09:11:55.979Z,96180.96
2018-08-12T09:14:26.676Z,96177.23
2018-08-12T09:16:57.385Z,96173.54
2018-08-12T09:19:28.153Z,96180.98
2018-08-12T09:21:58.585Z,96173.50
2018-08-12T09:24:29.141Z,96173.72
2018-08-12T09:26:59.531Z,96173.11
2018-08-12T09:29:29.915Z,96171.22
2018-08-12T09:32:04.351Z,96170.98
2018-08-12T09:34:34.819Z,96164.11
2018-08-12T09:37:06.345Z,96166.41
2018-08-12T09:39:37.107Z,96163.66
2018-08-12T09:42:08.397Z,96168.55
2018-08-12T09:44:38.844Z,96166.14
2018-08-12T09:47:09.304Z,96159.91
2018-08-12T09:49:40.903Z,96164.36
2018-08-12T09:52:11.366Z,96158.53
2018-08-12T09:54:42.117Z,96157.09
2018-08-12T09:57:12.581Z,96157.88
2018-08-12T09:59:43.074Z,96154.54
2018-08-12T10:02:13.615Z,96149.92
2018-08-12T10:04:44.064Z,96155.16
2018-08-12T10:07:14.827Z,96152.86
2018-08-12T10:09:45.188Z,96149.20
2018-08-12T10:12:15.579Z,96150.06
2018-08-12T10:14:46.636Z,96143.94
2018-08-12T10:17:17.091Z,96143.52
2018-08-12T10:19:47.546Z,96148.50
2018-08-12T10:22:18.042Z,96137.56
2018-08-12T10:24:48.419Z,96140.67
2018-08-12T10:27:19.012Z,96140.26
2018-08-12T10:29:49.439Z,96132.62
2018-08-12T10:32:20.240Z,96131.72
2018-08-12T10:34:50.920Z,96125.36
2018-08-12T10:37:22.056Z,96129.16
2018-08-12T10:40:43.382Z,96123.74
2018-08-12T10:43:14.000Z,96123.42
2018-08-12T10:45:44.777Z,96114.88
2018-08-12T10:48:15.123Z,96106.95
2018-08-12T10:51:46.168Z,96109.91
2018-08-12T10:54:16.715Z,96103.33
2018-08-12T10:56:47.258Z,96097.06
2018-08-12T10:59:17.727Z,96089.02
2018-08-12T11:01:48.388Z,96094.47
2018-08-12T11:04:18.978Z,96093.06
2018-08-12T11:06:50.150Z,96086.27
2018-08-12T11:09:21.106Z,96076.14
2018-08-12T11:11:51.665Z,96071.92
2018-08-12T11:14:21.780Z,96070.48
2018-08-12T11:16:52.408Z,96069.97
2018-08-12T11:19:22.554Z,96075.78
2018-08-12T11:21:52.698Z,96071.13
2018-08-12T11:24:22.798Z,96070.23
2018-08-12T11:26:52.982Z,96072.55
2018-08-12T11:29:23.292Z,96067.55
2018-08-12T11:31:53.356Z,96062.77
2018-08-12T11:34:23.533Z,96060.03
2018-08-12T11:36:53.606Z,96055.20
2018-08-12T11:39:24.110Z,96050.87
2018-08-12T11:41:54.434Z,96048.17
2018-08-12T11:44:25.012Z,96053.91
2018-08-12T11:46:55.249Z,96043.45
2018-08-12T11:49:25.392Z,96040.09
2018-08-12T11:51:55.654Z,96031.89
2018-08-12T11:54:29.566Z,96034.48
2018-08-12T11:56:59.774Z,96034.47
2018-08-12T11:59:30.095Z,96026.89
2018-08-12T12:02:01.460Z,96026.20
2018-08-12T12:04:31.840Z,96020.91
2018-08-12T12:07:02.047Z,96020.81
2018-08-12T12:09:32.517Z,96012.41
2018-08-12T12:12:02.691Z,96013.69
2018-08-12T12:14:33.016Z,96016.97
2018-08-12T12:17:03.334Z,96017.17
2018-08-12T12:19:33.506Z,96016.83
2018-08-12T12:22:03.835Z,96010.16
2018-08-12T12:24:33.948Z,96008.77
2018-08-12T12:27:04.884Z,96001.09
2018-08-12T12:29:35.934Z,95998.28
2018-08-12T12:32:06.116Z,95992.30
2018-08-12T12:34:36.606Z,95998.29
2018-08-12T12:37:06.715Z,95998.80
2018-08-12T12:39:36.885Z,95994.59
2018-08-12T12:42:07.055Z,95992.68
2018-08-12T12:44:37.286Z,95986.50
2018-08-12T12:47:07.704Z,95976.18
2018-08-12T12:49:37.900Z,95972.67
2018-08-12T12:52:08.853Z,95969.67
2018-08-12T12:54:39.247Z,95967.34
2018-08-12T12:57:09.948Z,95956.85
2018-08-12T12:59:40.456Z,95957.24
2018-08-12T13:02:10.757Z,95959.30
2018-08-12T13:04:41.165Z,95955.87
2018-08-12T13:07:11.316Z,95953.23
2018-08-12T13:09:41.519Z,95951.37
2018-08-12T13:12:11.859Z,95941.19
2018-08-12T13:14:42.020Z,95954.80
2018-08-12T13:17:12.091Z,95951.23
2018-08-12T13:19:42.396Z,95943.80
2018-08-12T13:22:12.693Z,95937.70
2018-08-12T13:24:43.313Z,95936.78
2018-08-12T13:27:13.412Z,95938.20
2018-08-12T13:29:43.482Z,95937.30
2018-08-12T13:32:14.180Z,95924.50
2018-08-12T13:34:44.467Z,95930.17
2018-08-12T13:37:15.606Z,95927.27
2018-08-12T13:39:45.752Z,95918.47
2018-08-12T13:42:16.453Z,95926.69
2018-08-12T13:44:46.665Z,95917.92
2018-08-12T13:47:17.167Z,95910.11
2018-08-12T13:49:47.900Z,95910.67
2018-08-12T13:52:18.052Z,95904.25
2018-08-12T13:54:48.173Z,95902.44
2018-08-12T13:57:19.737Z,95901.91
2018-08-12T13:59:49.923Z,95905.30
2018-08-12T14:02:20.730Z,95892.03
2018-08-12T14:04:50.789Z,95891.56
2018-08-12T14:07:21.272Z,95884.77
2018-08-12T14:09:51.425Z,95877.72
2018-08-12T14:12:21.442Z,95883.69
2018-08-12T14:14:51.504Z,95862.67
2018-08-12T14:17:21.655Z,95871.42
2018-08-12T14:19:51.923Z,95860.72
2018-08-12T14:22:22.381Z,95850.75
2018-08-12T14:24:52.813Z,95858.05
2018-08-12T14:27:22.884Z,95852.69
2018-08-12T14:36:41.423Z,95839.70
2018-08-12T14:39:11.948Z,95835.79
2018-08-12T14:41:42.060Z,95826.00
2018-08-12T14:47:49.533Z,95823.38
2018-08-12T14:50:22.681Z,95821.67
2018-08-12T14:52:53.094Z,95810.27
2018-08-12T14:55:23.266Z,95807.92
2018-08-12T14:57:53.428Z,95817.97
2018-08-12T15:00:25.014Z,95803.06
2018-08-12T15:02:55.208Z,95803.92
2018-08-12T15:05:26.623Z,95805.59
2018-08-12T15:07:57.171Z,95798.91
2018-08-12T15:10:27.349Z,95803.95
2018-08-12T15:12:57.914Z,95798.97
2018-08-12T15:15:28.416Z,95794.52
2018-08-12T15:17:58.569Z,95788.73
2018-08-12T15:20:28.757Z,95783.38
2018-08-12T15:22:59.712Z,95781.80
2018-08-12T15:25:30.624Z,95785.17
2018-08-12T15:28:00.817Z,95789.88
2018-08-12T15:30:30.915Z,95777.45
2018-08-12T15:33:01.835Z,95777.95
2018-08-12T15:35:31.985Z,95777.95
2018-08-12T15:38:02.123Z,95772.38
2018-08-12T15:40:32.185Z,95775.98
2018-08-12T15:43:02.391Z,95769.35
2018-08-12T15:45:32.540Z,95769.77
2018-08-12T15:48:42.163Z,95765.84
2018-08-12T15:51:12.535Z,95772.74
2018-08-12T15:53:42.913Z,95762.28
2018-08-12T15:56:13.296Z,95757.64
2018-08-12T15:58:43.433Z,95762.40
2018-08-12T16:01:42.773Z,95758.83
2018-08-12T16:04:12.952Z,95749.91
2018-08-12T16:06:43.436Z,95744.16
2018-08-12T16:09:13.710Z,95744.64
2018-08-12T16:11:43.963Z,95749.77
2018-08-12T16:14:14.085Z,95753.57
2018-08-12T16:16:44.414Z,95746.19
2018-08-12T16:19:15.093Z,95744.16
2018-08-12T16:21:46.211Z,95740.33
2018-08-12T16:24:16.481Z,95741.50
2018-08-12T16:26:47.089Z,95738.69
2018-08-12T16:29:17.101Z,95733.89
2018-08-12T16:31:47.978Z,95739.30
2018-08-12T16:34:18.211Z,95732.46
2018-08-12T16:36:48.326Z,95731.92
2018-08-12T16:39:18.461Z,95732.37
2018-08-12T16:41:48.956Z,95724.00
2018-08-12T16:44:20.111Z,95720.95
2018-08-12T16:46:50.683Z,95719.73
2018-08-12T16:49:21.172Z,95722.21
2018-08-12T16:51:51.745Z,95717.28
2018-08-12T16:54:21.888Z,95713.80
2018-08-12T16:56:52.338Z,95713.30
2018-08-12T16:59:22.758Z,95715.55
2018-08-12T17:01:53.228Z,95710.72
2018-08-12T17:04:23.761Z,95707.64
2018-08-12T17:06:53.976Z,95709.13
2018-08-12T17:09:24.589Z,95708.58
2018-08-12T17:11:54.714Z,95704.45
2018-08-12T17:14:24.866Z,95701.73
2018-08-12T17:16:55.264Z,95697.48
2018-08-12T17:19:25.366Z,95698.98
2018-08-12T17:21:55.864Z,95702.64
2018-08-12T17:24:25.976Z,95701.91
2018-08-12T17:26:57.220Z,95701.34
2018-08-12T17:29:27.672Z,95704.05
2018-08-12T17:31:57.776Z,95696.41
2018-08-12T17:34:27.931Z,95694.97
2018-08-12T17:36:58.410Z,95692.83
2018-08-12T17:39:28.510Z,95696.13
2018-08-12T17:41:58.796Z,95687.91
2018-08-12T17:44:29.000Z,95691.03
2018-08-12T17:46:59.278Z,95694.52
2018-08-12T17:49:29.422Z,95691.08
2018-08-12T17:52:00.265Z,95686.89
2018-08-12T17:54:30.396Z,95688.46
2018-08-12T17:57:00.619Z,95692.05
2018-08-12T17:59:30.750Z,95688.89
2018-08-12T18:02:00.907Z,95691.06
2018-08-12T18:04:31.067Z,95688.13
2018-08-12T18:07:01.224Z,95689.30
2018-08-12T18:09:31.274Z,95690.58
2018-08-12T18:12:01.731Z,95690.86
2018-08-12T18:14:31.883Z,95696.72
2018-08-12T18:17:02.003Z,95693.41
2018-08-12T18:19:32.440Z,95699.02
2018-08-12T18:22:02.984Z,95698.02
2018-08-12T18:24:33.138Z,95689.34
2018-08-12T18:27:03.393Z,95694.97
2018-08-12T18:29:33.794Z,95698.50
2018-08-12T18:32:04.369Z,95696.75
2018-08-12T18:34:34.864Z,95688.84
2018-08-12T18:37:05.163Z,95695.93
2018-08-12T18:39:35.585Z,95699.84
2018-08-12T18:42:06.153Z,95696.53
2018-08-12T18:44:36.329Z,95702.83
2018-08-12T18:47:07.182Z,95700.42
2018-08-12T18:49:38.107Z,95699.30
2018-08-12T18:52:08.800Z,95696.23
2018-08-12T18:54:39.246Z,95689.80
2018-08-12T18:57:10.202Z,95701.96
2018-08-12T18:59:40.559Z,95697.08
2018-08-12T19:02:11.000Z,95695.35
2018-08-12T19:04:43.619Z,95697.84
2018-08-12T19:07:14.014Z,95703.06
2018-08-12T19:09:44.593Z,95699.34
2018-08-12T19:12:15.308Z,95707.19
2018-08-12T19:14:46.602Z,95703.55
2018-08-12T19:17:17.774Z,95709.63
2018-08-12T19:19:48.242Z,95707.42
2018-08-12T19:22:19.056Z,95708.20
2018-08-12T19:24:49.534Z,95711.13
2018-08-12T19:27:19.894Z,95705.45
2018-08-12T19:29:50.270Z,95708.65
2018-08-12T19:32:20.909Z,95705.48
2018-08-12T19:34:51.421Z,95698.41
2018-08-12T19:37:21.789Z,95697.54
2018-08-12T19:39:52.208Z,95697.85
2018-08-12T19:42:23.631Z,95692.15
2018-08-12T19:44:54.165Z,95696.33
2018-08-12T19:47:24.603Z,95693.35
2018-08-12T19:49:55.011Z,95689.88
2018-08-12T19:52:25.457Z,95685.91
2018-08-12T19:54:55.899Z,95694.45
2018-08-12T20:01:03.029Z,95687.84
2018-08-12T20:03:33.551Z,95690.02
2018-08-12T20:06:04.566Z,95687.36
2018-08-12T20:08:35.361Z,95684.19
2018-08-12T20:11:05.807Z,95689.25
2018-08-12T20:13:36.419Z,95686.37
2018-08-12T20:16:06.902Z,95677.75
2018-08-12T20:18:37.280Z,95681.96
2018-08-12T20:21:08.283Z,95682.62
2018-08-12T20:23:38.757Z,95681.77
2018-08-12T20:26:09.451Z,95680.91
2018-08-12T20:28:40.083Z,95684.39
2018-08-12T20:31:10.999Z,95683.89
2018-08-12T20:33:42.389Z,95681.33
2018-08-12T20:36:12.819Z,95680.36
2018-08-12T20:38:43.638Z,95684.92
2018-08-12T20:41:14.233Z,95680.52
2018-08-12T20:43:44.691Z,95684.95
2018-08-12T20:46:15.518Z,95688.55
2018-08-12T20:48:46.245Z,95681.94
2018-08-12T20:51:16.932Z,95683.15
2018-08-12T20:53:47.351Z,95685.17
2018-08-12T20:56:17.729Z,95677.77
2018-08-12T20:58:48.301Z,95683.12
2018-08-12T21:05:42.626Z,95686.31
2018-08-12T21:08:13.021Z,95694.96
2018-08-12T21:10:43.510Z,95688.75
2018-08-12T21:13:14.335Z,95691.03
2018-08-12T21:15:45.265Z,95688.88
2018-08-12T21:18:16.282Z,95691.73
2018-08-12T21:20:46.749Z,95686.52
2018-08-12T21:23:17.371Z,95687.13
2018-08-12T21:25:49.009Z,95689.79
2018-08-12T21:28:19.408Z,95679.78
2018-08-12T21:30:49.835Z,95689.50
2018-08-12T21:33:20.548Z,95686.57
2018-08-12T21:35:51.459Z,95685.14
2018-08-12T21:38:22.173Z,95687.52
2018-08-12T21:40:52.820Z,95690.58
2018-08-12T21:43:23.249Z,95691.52
2018-08-12T21:45:53.767Z,95688.45
2018-08-12T21:48:24.314Z,95690.98
2018-08-12T21:50:54.740Z,95694.98
2018-08-12T21:57:01.444Z,95694.90
2018-08-12T21:59:31.881Z,95686.09
2018-08-12T22:02:02.614Z,95692.41
2018-08-12T22:04:33.050Z,95691.22
2018-08-12T22:07:04.592Z,95691.22
2018-08-12T22:09:35.112Z,95689.86
2018-08-12T22:12:05.618Z,95692.47
2018-08-12T22:14:36.698Z,95684.53
2018-08-12T22:17:07.432Z,95689.30
2018-08-12T22:19:43.816Z,95690.11
2018-08-12T22:22:14.838Z,95691.99
2018-08-12T22:24:45.244Z,95694.59
2018-08-12T22:27:15.621Z,95699.41
2018-08-12T22:29:46.172Z,95693.55
2018-08-12T22:32:16.580Z,95690.02
2018-08-12T22:34:47.098Z,95692.03
2018-08-12T22:37:17.822Z,95694.02
2018-08-12T22:39:48.257Z,95693.42
2018-08-12T22:42:18.682Z,95682.03
2018-08-12T22:44:49.054Z,95684.19
2018-08-12T22:47:19.559Z,95682.79
2018-08-12T22:49:50.326Z,95681.12
2018-08-12T22:52:20.769Z,95676.19
2018-08-12T22:54:51.237Z,95676.20
2018-08-12T22:57:21.601Z,95664.05
2018-08-12T22:59:52.476Z,95662.06
2018-08-12T23:02:23.194Z,95660.52
2018-08-12T23:04:53.930Z,95653.94
2018-08-12T23:07:24.566Z,95659.15
2018-08-12T23:09:55.303Z,95655.80
2018-08-12T23:12:26.160Z,95651.95
2018-08-12T23:15:07.200Z,95643.51
2018-08-12T23:17:37.562Z,95641.16
2018-08-12T23:20:07.956Z,95640.84
2018-08-12T23:22:38.317Z,95638.09
2018-08-12T23:25:09.134Z,95641.61
2018-08-12T23:27:39.504Z,95643.96
2018-08-12T23:30:10.050Z,95631.52
2018-08-12T23:32:40.954Z,95635.50
2018-08-12T23:35:11.353Z,95639.81
2018-08-12T23:38:42.550Z,95625.64
2018-08-12T23:41:13.316Z,95630.28
2018-08-12T23:43:45.414Z,95630.42
2018-08-12T23:46:16.173Z,95633.83
2018-08-12T23:48:46.948Z,95630.88
2018-08-12T23:51:17.456Z,95630.59
2018-08-12T23:53:47.873Z,95627.52
2018-08-12T23:56:18.277Z,95622.75
2018-08-12T23:58:48.698Z,95619.04
